createdAt,value
2017-05-18T00:01:14.934Z,24.63
2017-05-18T00:02:15.064Z,24.57
2017-05-18T00:03:15.102Z,24.61
2017-05-18T00:04:15.038Z,24.57
2017-05-18T00:05:14.977Z,24.61
2017-05-18T00:06:15.062Z,24.61
2017-05-18T00:07:14.848Z,24.65
2017-05-18T00:08:14.790Z,24.57
2017-05-18T00:09:14.730Z,24.61
2017-05-18T00:10:14.664Z,24.61
2017-05-18T00:11:14.602Z,24.61
2017-05-18T00:12:14.541Z,24.57
2017-05-18T00:13:14.543Z,24.61
2017-05-18T00:14:14.420Z,24.58
2017-05-18T00:15:14.359Z,24.65
2017-05-18T00:16:13.993Z,24.61
2017-05-18T00:17:14.233Z,24.58
2017-05-18T00:18:14.223Z,24.65
2017-05-18T00:19:14.110Z,24.61
2017-05-18T00:20:14.047Z,24.65
2017-05-18T00:21:13.684Z,24.53
2017-05-18T00:22:13.621Z,24.54
2017-05-18T00:23:13.868Z,24.6
2017-05-18T00:24:13.802Z,24.55
2017-05-18T00:25:13.749Z,24.55
2017-05-18T00:26:13.680Z,24.55
2017-05-18T00:27:13.619Z,24.61
2017-05-18T00:28:13.557Z,24.63
2017-05-18T00:29:13.196Z,24.54
2017-05-18T00:30:13.127Z,24.54
2017-05-18T00:31:13.370Z,24.6
2017-05-18T00:32:13.007Z,24.58
2017-05-18T00:33:13.248Z,24.58
2017-05-18T00:34:13.189Z,24.55
2017-05-18T00:35:12.826Z,24.5
2017-05-18T00:36:13.067Z,24.51
2017-05-18T00:37:13.004Z,24.57
2017-05-18T00:38:12.643Z,24.58
2017-05-18T00:39:12.576Z,24.54
2017-05-18T00:40:13.018Z,24.58
2017-05-18T00:41:12.762Z,24.54
2017-05-18T00:42:12.695Z,24.47
2017-05-18T00:43:12.649Z,24.57
2017-05-18T00:44:12.272Z,24.53
2017-05-18T00:45:12.208Z,24.61
2017-05-18T00:46:12.453Z,24.6
2017-05-18T00:47:12.392Z,24.58
2017-05-18T00:48:12.330Z,24.63
2017-05-18T00:49:12.263Z,24.57
2017-05-18T00:50:12.201Z,24.57
2017-05-18T00:51:12.143Z,24.54
2017-05-18T00:52:11.779Z,24.58
2017-05-18T00:53:12.018Z,24.51
2017-05-18T00:54:11.956Z,24.54
2017-05-18T00:55:11.895Z,24.5
2017-05-18T00:56:11.836Z,24.47
2017-05-18T00:57:11.770Z,24.54
2017-05-18T00:58:11.712Z,24.57
2017-05-18T00:59:11.647Z,24.51
2017-05-18T01:00:11.586Z,24.58
2017-05-18T01:01:11.525Z,24.5
2017-05-18T01:02:11.460Z,24.47
2017-05-18T01:03:11.400Z,24.5
2017-05-18T01:04:11.351Z,24.58
2017-05-18T01:05:11.280Z,24.54
2017-05-18T01:06:11.215Z,24.54
2017-05-18T01:07:10.850Z,24.51
2017-05-18T01:08:11.094Z,24.51
2017-05-18T01:09:11.037Z,24.55
2017-05-18T01:10:10.667Z,24.51
2017-05-18T01:11:10.908Z,24.57
2017-05-18T01:12:10.851Z,24.6
2017-05-18T01:13:10.787Z,24.55
2017-05-18T01:14:10.723Z,24.58
2017-05-18T01:15:10.374Z,24.58
2017-05-18T01:16:10.601Z,24.51
2017-05-18T01:17:10.605Z,24.58
2017-05-18T01:18:10.176Z,24.51
2017-05-18T01:19:10.415Z,24.58
2017-05-18T01:20:10.360Z,24.48
2017-05-18T01:21:09.994Z,24.55
2017-05-18T01:22:10.234Z,24.51
2017-05-18T01:23:10.170Z,24.5
2017-05-18T01:24:10.111Z,24.6
2017-05-18T01:25:10.047Z,24.57
2017-05-18T01:26:09.988Z,24.54
2017-05-18T01:27:09.623Z,24.57
2017-05-18T01:28:09.867Z,24.51
2017-05-18T01:29:09.801Z,24.53
2017-05-18T01:30:24.336Z,24.54
2017-05-18T01:31:09.679Z,24.5
2017-05-18T01:32:09.616Z,24.6
2017-05-18T01:33:09.559Z,24.58
2017-05-18T01:34:09.493Z,24.6
2017-05-18T01:35:09.432Z,24.58
2017-05-18T01:36:09.371Z,24.6
2017-05-18T01:37:09.314Z,24.54
2017-05-18T01:38:09.248Z,24.58
2017-05-18T01:39:09.190Z,24.6
2017-05-18T01:40:09.123Z,24.54
2017-05-18T01:41:09.061Z,24.54
2017-05-18T01:42:09.010Z,24.5
2017-05-18T01:43:08.950Z,24.48
2017-05-18T01:44:08.884Z,24.6
2017-05-18T01:45:08.815Z,24.57
2017-05-18T01:46:08.752Z,24.61
2017-05-18T01:47:08.749Z,24.6
2017-05-18T01:48:08.639Z,24.58
2017-05-18T01:49:08.572Z,24.58
2017-05-18T01:50:07.904Z,24.47
2017-05-18T01:51:08.447Z,24.57
2017-05-18T01:52:08.388Z,24.57
2017-05-18T01:53:08.324Z,24.57
2017-05-18T01:54:08.267Z,24.6
2017-05-18T01:55:08.217Z,24.51
2017-05-18T01:56:07.835Z,24.6
2017-05-18T01:57:08.076Z,24.57
2017-05-18T01:58:08.034Z,24.57
2017-05-18T01:59:07.973Z,24.5
2017-05-18T02:00:07.607Z,24.48
2017-05-18T02:01:07.847Z,24.54
2017-05-18T02:02:07.770Z,24.5
2017-05-18T02:03:07.713Z,24.51
2017-05-18T02:04:07.350Z,24.55
2017-05-18T02:05:07.589Z,24.47
2017-05-18T02:06:07.527Z,24.58
2017-05-18T02:07:07.467Z,24.58
2017-05-18T02:08:07.403Z,24.54
2017-05-18T02:09:07.342Z,24.51
2017-05-18T02:10:07.285Z,24.48
2017-05-18T02:11:07.222Z,24.58
2017-05-18T02:12:07.158Z,24.5
2017-05-18T02:13:06.793Z,24.47
2017-05-18T02:14:07.035Z,24.53
2017-05-18T02:15:06.972Z,24.6
2017-05-18T02:16:06.909Z,24.5
2017-05-18T02:17:06.849Z,24.53
2017-05-18T02:18:06.787Z,24.47
2017-05-18T02:19:06.725Z,24.53
2017-05-18T02:20:06.661Z,24.5
2017-05-18T02:21:06.601Z,24.48
2017-05-18T02:22:06.544Z,24.53
2017-05-18T02:23:06.477Z,24.47
2017-05-18T02:24:06.416Z,24.48
2017-05-18T02:25:06.356Z,24.57
2017-05-18T02:26:06.296Z,24.51
2017-05-18T02:27:06.231Z,24.48
2017-05-18T02:28:06.171Z,24.43
2017-05-18T02:29:06.108Z,24.55
2017-05-18T02:30:06.060Z,24.48
2017-05-18T02:31:05.986Z,24.5
2017-05-18T02:32:05.930Z,24.48
2017-05-18T02:33:05.866Z,24.55
2017-05-18T02:34:05.802Z,24.51
2017-05-18T02:35:05.739Z,24.5
2017-05-18T02:36:05.681Z,24.47
2017-05-18T02:37:05.663Z,24.54
2017-05-18T02:38:05.558Z,24.51
2017-05-18T02:39:05.512Z,24.54
2017-05-18T02:40:05.446Z,24.5
2017-05-18T02:41:05.374Z,24.53
2017-05-18T02:42:05.308Z,24.51
2017-05-18T02:43:05.246Z,24.5
2017-05-18T02:44:05.191Z,24.5
2017-05-18T02:45:05.125Z,24.47
2017-05-18T02:46:05.061Z,24.48
2017-05-18T02:47:05.001Z,24.53
2017-05-18T02:48:04.937Z,24.47
2017-05-18T02:49:04.879Z,24.5
2017-05-18T02:50:04.514Z,24.55
2017-05-18T02:51:04.820Z,24.5
2017-05-18T02:52:04.694Z,24.45
2017-05-18T02:53:04.643Z,24.5
2017-05-18T02:54:04.567Z,24.5
2017-05-18T02:55:04.207Z,24.54
2017-05-18T02:56:04.445Z,24.5
2017-05-18T02:57:04.433Z,24.5
2017-05-18T02:58:04.018Z,24.5
2017-05-18T02:59:04.261Z,24.5
2017-05-18T03:00:04.202Z,24.5
2017-05-18T03:01:03.834Z,24.47
2017-05-18T03:02:04.077Z,24.57
2017-05-18T03:03:04.013Z,24.43
2017-05-18T03:04:03.657Z,24.48
2017-05-18T03:05:03.894Z,24.47
2017-05-18T03:06:03.829Z,24.51
2017-05-18T03:07:03.766Z,24.51
2017-05-18T03:08:03.711Z,24.48
2017-05-18T03:09:03.645Z,24.51
2017-05-18T03:10:03.601Z,24.57
2017-05-18T03:11:03.528Z,24.51
2017-05-18T03:12:03.465Z,24.47
2017-05-18T03:13:03.400Z,24.47
2017-05-18T03:14:03.339Z,24.48
2017-05-18T03:15:03.274Z,24.5
2017-05-18T03:16:03.216Z,24.5
2017-05-18T03:17:03.208Z,24.45
2017-05-18T03:18:03.092Z,24.5
2017-05-18T03:19:03.032Z,24.45
2017-05-18T03:20:02.981Z,24.5
2017-05-18T03:21:02.911Z,24.5
2017-05-18T03:22:02.847Z,24.38
2017-05-18T03:23:02.784Z,24.39
2017-05-18T03:24:02.736Z,24.48
2017-05-18T03:25:02.658Z,24.39
2017-05-18T03:26:02.597Z,24.39
2017-05-18T03:27:02.539Z,24.45
2017-05-18T03:28:02.474Z,24.47
2017-05-18T03:29:02.415Z,24.47
2017-05-18T03:30:02.352Z,24.45
2017-05-18T03:31:02.292Z,24.39
2017-05-18T03:32:02.231Z,24.39
2017-05-18T03:33:02.170Z,24.48
2017-05-18T03:34:02.106Z,24.45
2017-05-18T03:35:02.045Z,24.48
2017-05-18T03:36:01.983Z,24.42
2017-05-18T03:37:01.919Z,24.43
2017-05-18T03:38:01.860Z,24.45
2017-05-18T03:39:01.801Z,24.43
2017-05-18T03:40:01.735Z,24.38
2017-05-18T03:41:01.673Z,24.47
2017-05-18T03:42:01.615Z,24.45
2017-05-18T03:43:01.554Z,24.4
2017-05-18T03:44:01.489Z,24.43
2017-05-18T03:45:01.426Z,24.48
2017-05-18T03:46:01.362Z,24.4
2017-05-18T03:47:01.301Z,24.43
2017-05-18T03:48:01.246Z,24.53
2017-05-18T03:49:01.183Z,24.45
2017-05-18T03:50:01.119Z,24.45
2017-05-18T03:51:01.056Z,24.47
2017-05-18T03:52:00.996Z,24.39
2017-05-18T03:53:00.937Z,24.38
2017-05-18T03:54:00.570Z,24.48
2017-05-18T03:55:00.811Z,24.53
2017-05-18T03:56:00.749Z,24.47
2017-05-18T03:57:00.683Z,24.42
2017-05-18T03:58:00.632Z,24.45
2017-05-18T03:59:00.568Z,24.53
2017-05-18T04:00:00.502Z,24.45
2017-05-18T04:01:00.445Z,24.42
2017-05-18T04:02:00.390Z,24.43
2017-05-18T04:03:00.317Z,24.43
2017-05-18T04:04:00.253Z,24.39
2017-05-18T04:05:00.195Z,24.36
2017-05-18T04:06:00.130Z,24.42
2017-05-18T04:07:00.075Z,24.39
2017-05-18T04:07:59.709Z,24.4
2017-05-18T04:08:59.949Z,24.51
2017-05-18T04:09:59.886Z,24.48
2017-05-18T04:10:59.825Z,24.43
2017-05-18T04:11:59.765Z,24.45
2017-05-18T04:12:59.698Z,24.39
2017-05-18T04:13:59.643Z,24.45
2017-05-18T04:14:59.574Z,24.45
2017-05-18T04:15:59.512Z,24.4
2017-05-18T04:16:59.469Z,24.45
2017-05-18T04:17:59.394Z,24.4
2017-05-18T04:18:59.338Z,24.47
2017-05-18T04:19:59.269Z,24.42
2017-05-18T04:20:59.211Z,24.43
2017-05-18T04:21:59.142Z,24.48
2017-05-18T04:22:59.086Z,24.47
2017-05-18T04:23:59.022Z,24.43
2017-05-18T04:24:58.960Z,24.43
2017-05-18T04:25:58.900Z,24.45
2017-05-18T04:26:58.835Z,24.43
2017-05-18T04:27:58.780Z,24.42
2017-05-18T04:28:58.722Z,24.4
2017-05-18T04:29:58.654Z,24.4
2017-05-18T04:30:58.589Z,24.45
2017-05-18T04:31:58.529Z,24.33
2017-05-18T04:32:58.468Z,24.42
2017-05-18T04:33:58.403Z,24.45
2017-05-18T04:34:58.345Z,24.43
2017-05-18T04:35:58.281Z,24.48
2017-05-18T04:36:58.223Z,24.42
2017-05-18T04:37:58.159Z,24.54
2017-05-18T04:38:57.791Z,24.47
2017-05-18T04:39:57.732Z,24.43
2017-05-18T04:40:57.972Z,24.43
2017-05-18T04:41:57.910Z,24.43
2017-05-18T04:42:57.549Z,24.35
2017-05-18T04:43:57.786Z,24.43
2017-05-18T04:44:57.425Z,24.47
2017-05-18T04:45:57.662Z,24.3
2017-05-18T04:46:57.601Z,24.36
2017-05-18T04:47:57.544Z,24.42
2017-05-18T04:48:57.479Z,24.45
2017-05-18T04:49:57.117Z,24.39
2017-05-18T04:50:57.354Z,24.4
2017-05-18T04:51:57.294Z,24.38
2017-05-18T04:52:57.229Z,24.4
2017-05-18T04:53:57.181Z,24.51
2017-05-18T04:54:57.113Z,24.35
2017-05-18T04:55:57.045Z,24.39
2017-05-18T04:56:56.986Z,24.38
2017-05-18T04:57:56.923Z,24.42
2017-05-18T04:58:56.862Z,24.42
2017-05-18T04:59:56.498Z,24.45
2017-05-18T05:00:56.748Z,24.38
2017-05-18T05:01:56.677Z,24.33
2017-05-18T05:02:56.616Z,24.35
2017-05-18T05:03:56.554Z,24.4
2017-05-18T05:04:56.491Z,24.35
2017-05-18T05:05:56.579Z,24.36
2017-05-18T05:06:56.366Z,24.4
2017-05-18T05:07:56.306Z,24.38
2017-05-18T05:08:56.248Z,24.28
2017-05-18T05:09:56.186Z,24.4
2017-05-18T05:10:56.122Z,24.42
2017-05-18T05:11:56.063Z,24.42
2017-05-18T05:12:55.996Z,24.43
2017-05-18T05:13:55.934Z,24.4
2017-05-18T05:14:55.871Z,24.39
2017-05-18T05:15:55.812Z,24.4
2017-05-18T05:16:55.748Z,24.32
2017-05-18T05:17:55.389Z,24.39
2017-05-18T05:18:55.625Z,24.39
2017-05-18T05:19:55.581Z,24.38
2017-05-18T05:20:55.501Z,24.33
2017-05-18T05:21:55.439Z,24.4
2017-05-18T05:22:55.377Z,24.3
2017-05-18T05:23:55.319Z,24.45
2017-05-18T05:24:55.267Z,24.36
2017-05-18T05:25:55.191Z,24.35
2017-05-18T05:26:55.130Z,24.36
2017-05-18T05:27:55.073Z,24.42
2017-05-18T05:28:55.009Z,24.29
2017-05-18T05:29:54.949Z,24.39
2017-05-18T05:30:54.881Z,24.4
2017-05-18T05:31:54.825Z,24.35
2017-05-18T05:32:54.771Z,24.38
2017-05-18T05:33:54.699Z,24.3
2017-05-18T05:34:54.636Z,24.36
2017-05-18T05:35:54.573Z,24.3
2017-05-18T05:36:54.520Z,24.33
2017-05-18T05:37:54.146Z,24.35
2017-05-18T05:38:54.089Z,24.36
2017-05-18T05:39:54.330Z,24.36
2017-05-18T05:40:54.373Z,24.29
2017-05-18T05:41:54.208Z,24.36
2017-05-18T05:42:54.145Z,24.32
2017-05-18T05:43:54.079Z,24.39
2017-05-18T05:44:54.021Z,24.38
2017-05-18T05:45:53.956Z,24.42
2017-05-18T05:46:53.901Z,24.36
2017-05-18T05:47:53.530Z,24.39
2017-05-18T05:48:53.776Z,24.38
2017-05-18T05:49:53.710Z,24.36
2017-05-18T05:50:53.649Z,24.36
2017-05-18T05:51:53.586Z,24.33
2017-05-18T05:52:53.528Z,24.4
2017-05-18T05:53:53.463Z,24.36
2017-05-18T05:54:53.401Z,24.42
2017-05-18T05:55:53.339Z,24.38
2017-05-18T05:56:53.279Z,24.23
2017-05-18T05:57:53.219Z,24.38
2017-05-18T05:58:53.154Z,24.36
2017-05-18T05:59:53.088Z,24.21
2017-05-18T06:00:53.026Z,24.28
2017-05-18T06:01:52.969Z,24.36
2017-05-18T06:02:52.906Z,24.3
2017-05-18T06:03:52.848Z,24.29
2017-05-18T06:04:52.483Z,24.32
2017-05-18T06:05:52.723Z,24.23
2017-05-18T06:06:52.664Z,24.24
2017-05-18T06:07:52.600Z,24.3
2017-05-18T06:08:52.545Z,24.23
2017-05-18T06:09:52.478Z,24.26
2017-05-18T06:10:52.416Z,24.39
2017-05-18T06:11:52.350Z,24.38
2017-05-18T06:12:52.293Z,24.36
2017-05-18T06:13:52.229Z,24.35
2017-05-18T06:14:52.173Z,24.26
2017-05-18T06:15:52.103Z,24.28
2017-05-18T06:16:52.046Z,24.29
2017-05-18T06:17:51.978Z,24.29
2017-05-18T06:18:51.982Z,24.3
2017-05-18T06:19:51.857Z,24.38
2017-05-18T06:20:51.796Z,24.39
2017-05-18T06:21:51.434Z,24.26
2017-05-18T06:22:51.675Z,24.29
2017-05-18T06:23:51.614Z,24.26
2017-05-18T06:24:51.550Z,24.3
2017-05-18T06:25:51.488Z,24.36
2017-05-18T06:26:51.426Z,24.29
2017-05-18T06:27:51.366Z,24.33
2017-05-18T06:28:51.301Z,24.24
2017-05-18T06:29:51.248Z,24.26
2017-05-18T06:30:51.175Z,24.32
2017-05-18T06:31:51.114Z,24.26
2017-05-18T06:32:51.060Z,24.36
2017-05-18T06:33:50.995Z,24.24
2017-05-18T06:34:50.931Z,24.32
2017-05-18T06:35:50.867Z,24.26
2017-05-18T06:36:50.504Z,24.26
2017-05-18T06:37:50.746Z,24.42
2017-05-18T06:38:50.685Z,24.29
2017-05-18T06:39:50.626Z,24.23
2017-05-18T06:40:50.556Z,24.38
2017-05-18T06:41:50.501Z,24.32
2017-05-18T06:42:50.435Z,24.38
2017-05-18T06:43:50.377Z,24.26
2017-05-18T06:44:50.313Z,24.36
2017-05-18T06:45:50.254Z,24.29
2017-05-18T06:46:50.189Z,24.26
2017-05-18T06:47:50.128Z,24.24
2017-05-18T06:48:50.065Z,24.38
2017-05-18T06:49:50.005Z,24.38
2017-05-18T06:50:49.941Z,24.39
2017-05-18T06:51:49.883Z,24.36
2017-05-18T06:52:49.820Z,24.36
2017-05-18T06:53:49.758Z,24.4
2017-05-18T06:54:49.697Z,24.4
2017-05-18T06:55:49.931Z,24.4
2017-05-18T06:56:49.573Z,24.45
2017-05-18T06:57:49.453Z,24.43
2017-05-18T06:58:49.827Z,24.42
2017-05-18T06:59:49.388Z,24.45
2017-05-18T07:00:50.184Z,24.48
2017-05-18T07:01:49.261Z,24.43
2017-05-18T07:02:49.203Z,24.36
2017-05-18T07:03:49.146Z,24.47
2017-05-18T07:04:49.107Z,24.48
2017-05-18T07:05:48.713Z,24.57
2017-05-18T07:06:48.953Z,24.5
2017-05-18T07:07:48.888Z,24.57
2017-05-18T07:08:48.527Z,24.57
2017-05-18T07:09:48.769Z,24.57
2017-05-18T07:10:48.706Z,24.51
2017-05-18T07:11:48.646Z,24.58
2017-05-18T07:12:48.735Z,24.61
2017-05-18T07:13:48.551Z,24.58
2017-05-18T07:14:48.462Z,24.65
2017-05-18T07:15:48.505Z,24.57
2017-05-18T07:16:48.335Z,24.6
2017-05-18T07:17:48.275Z,24.6
2017-05-18T07:18:48.219Z,24.7
2017-05-18T07:19:48.299Z,24.61
2017-05-18T07:20:48.091Z,24.74
2017-05-18T07:21:48.032Z,24.65
2017-05-18T07:22:47.967Z,24.74
2017-05-18T07:23:47.609Z,24.66
2017-05-18T07:24:48.093Z,24.77
2017-05-18T07:25:47.781Z,24.76
2017-05-18T07:26:47.731Z,24.73
2017-05-18T07:27:47.719Z,24.73
2017-05-18T07:28:47.605Z,24.76
2017-05-18T07:29:47.546Z,24.77
2017-05-18T07:30:47.471Z,24.8
2017-05-18T07:31:47.411Z,24.85
2017-05-18T07:32:47.351Z,24.8
2017-05-18T07:33:47.329Z,24.84
2017-05-18T07:34:47.482Z,24.85
2017-05-18T07:35:47.172Z,24.84
2017-05-18T07:36:47.102Z,24.78
2017-05-18T07:37:47.047Z,24.8
2017-05-18T07:38:47.003Z,24.85
2017-05-18T07:39:46.617Z,24.89
2017-05-18T07:40:46.556Z,24.86
2017-05-18T07:41:46.796Z,24.88
2017-05-18T07:42:46.740Z,24.92
2017-05-18T07:43:46.676Z,24.88
2017-05-18T07:44:46.623Z,24.92
2017-05-18T07:45:46.857Z,24.85
2017-05-18T07:46:46.542Z,24.86
2017-05-18T07:47:46.432Z,24.89
2017-05-18T07:48:46.366Z,24.93
2017-05-18T07:49:46.308Z,24.85
2017-05-18T07:50:46.050Z,24.85
2017-05-18T07:51:46.192Z,24.85
2017-05-18T07:52:46.127Z,25.01
2017-05-18T07:53:46.154Z,24.93
2017-05-18T07:54:45.999Z,25.03
2017-05-18T07:55:45.937Z,24.96
2017-05-18T07:56:45.882Z,25.01
2017-05-18T07:57:45.821Z,24.96
2017-05-18T07:58:45.756Z,25.03
2017-05-18T07:59:45.817Z,25.11
2017-05-18T08:00:46.533Z,25.07
2017-05-18T08:01:45.571Z,25.01
2017-05-18T08:02:45.507Z,24.95
2017-05-18T08:03:45.148Z,25.06
2017-05-18T08:04:45.395Z,25.07
2017-05-18T08:05:45.342Z,25.07
2017-05-18T08:06:45.267Z,25.1
2017-05-18T08:07:45.204Z,25.1
2017-05-18T08:08:45.143Z,24.96
2017-05-18T08:09:45.088Z,25.07
2017-05-18T08:10:45.022Z,25.07
2017-05-18T08:11:44.994Z,25.04
2017-05-18T08:12:44.895Z,25.04
2017-05-18T08:13:44.902Z,25.06
2017-05-18T08:14:44.789Z,25.1
2017-05-18T08:15:44.713Z,25.06
2017-05-18T08:16:44.346Z,25.16
2017-05-18T08:17:44.594Z,25.1
2017-05-18T08:18:44.532Z,25.08
2017-05-18T08:19:44.482Z,25.11
2017-05-18T08:20:44.406Z,25.18
2017-05-18T08:21:44.350Z,25.16
2017-05-18T08:22:44.287Z,25.1
2017-05-18T08:23:44.371Z,25.07
2017-05-18T08:24:44.169Z,25.13
2017-05-18T08:25:44.103Z,25.23
2017-05-18T08:26:44.045Z,25.17
2017-05-18T08:27:43.986Z,25.22
2017-05-18T08:28:43.921Z,25.17
2017-05-18T08:29:43.862Z,25.17
2017-05-18T08:30:43.855Z,25.14
2017-05-18T08:31:43.857Z,25.18
2017-05-18T08:32:43.677Z,25.18
2017-05-18T08:33:43.620Z,25.17
2017-05-18T08:34:43.556Z,25.21
2017-05-18T08:35:43.496Z,25.23
2017-05-18T08:36:43.445Z,25.21
2017-05-18T08:37:43.375Z,25.25
2017-05-18T08:38:43.006Z,25.32
2017-05-18T08:39:43.252Z,25.25
2017-05-18T08:40:43.189Z,25.29
2017-05-18T08:41:43.133Z,25.28
2017-05-18T08:42:43.068Z,25.36
2017-05-18T08:43:43.009Z,25.26
2017-05-18T08:44:42.945Z,25.22
2017-05-18T08:45:42.888Z,25.31
2017-05-18T08:46:42.822Z,25.32
2017-05-18T08:47:42.514Z,25.31
2017-05-18T08:48:42.399Z,25.28
2017-05-18T08:49:42.338Z,25.32
2017-05-18T08:50:42.274Z,25.33
2017-05-18T08:51:42.217Z,25.38
2017-05-18T08:52:42.461Z,25.36
2017-05-18T08:53:42.583Z,25.43
2017-05-18T08:54:42.300Z,25.36
2017-05-18T08:55:42.194Z,25.32
2017-05-18T08:56:42.214Z,25.4
2017-05-18T08:57:42.199Z,25.32
2017-05-18T08:58:42.093Z,25.4
2017-05-18T08:59:42.032Z,25.41
2017-05-18T09:00:41.921Z,25.36
2017-05-18T09:01:41.905Z,25.31
2017-05-18T09:02:41.845Z,25.43
2017-05-18T09:03:41.786Z,25.44
2017-05-18T09:04:41.728Z,25.41
2017-05-18T09:05:41.698Z,25.4
2017-05-18T09:06:41.608Z,25.43
2017-05-18T09:07:41.547Z,25.47
2017-05-18T09:08:41.482Z,25.36
2017-05-18T09:09:41.422Z,25.38
2017-05-18T09:10:41.476Z,25.41
2017-05-18T09:11:41.303Z,25.44
2017-05-18T09:12:40.945Z,25.48
2017-05-18T09:13:40.881Z,25.43
2017-05-18T09:14:41.128Z,25.51
2017-05-18T09:15:41.001Z,25.44
2017-05-18T09:16:40.992Z,25.43
2017-05-18T09:17:40.940Z,25.38
2017-05-18T09:18:41.190Z,25.5
2017-05-18T09:19:40.890Z,25.53
2017-05-18T09:20:40.759Z,25.51
2017-05-18T09:21:40.692Z,25.53
2017-05-18T09:22:40.327Z,25.5
2017-05-18T09:23:40.569Z,25.59
2017-05-18T09:24:40.507Z,25.65
2017-05-18T09:25:40.451Z,25.6
2017-05-18T09:26:40.383Z,25.63
2017-05-18T09:27:40.335Z,25.55
2017-05-18T09:28:40.265Z,25.58
2017-05-18T09:29:40.231Z,25.66
2017-05-18T09:30:40.297Z,25.62
2017-05-18T09:31:40.090Z,25.66
2017-05-18T09:32:39.726Z,25.65
2017-05-18T09:33:39.662Z,25.63
2017-05-18T09:34:39.604Z,25.63
2017-05-18T09:35:39.539Z,25.65
2017-05-18T09:36:39.782Z,25.69
2017-05-18T09:37:39.510Z,25.68
2017-05-18T09:38:39.663Z,25.7
2017-05-18T09:39:39.602Z,25.68
2017-05-18T09:40:39.237Z,25.66
2017-05-18T09:41:39.176Z,25.73
2017-05-18T09:42:39.430Z,25.66
2017-05-18T09:43:39.356Z,25.72
2017-05-18T09:44:39.296Z,25.72
2017-05-18T09:45:39.235Z,25.78
2017-05-18T09:46:39.176Z,25.8
2017-05-18T09:47:38.815Z,25.84
2017-05-18T09:48:39.053Z,25.73
2017-05-18T09:49:38.994Z,25.85
2017-05-18T09:50:38.971Z,25.84
2017-05-18T09:51:38.868Z,25.87
2017-05-18T09:52:38.826Z,25.87
2017-05-18T09:53:38.955Z,25.84
2017-05-18T09:54:38.688Z,25.84
2017-05-18T09:55:38.326Z,25.93
2017-05-18T09:56:38.265Z,25.9
2017-05-18T09:57:38.563Z,25.85
2017-05-18T09:58:38.444Z,25.93
2017-05-18T09:59:38.541Z,25.95
2017-05-18T10:00:38.323Z,25.88
2017-05-18T10:01:38.264Z,26.05
2017-05-18T10:02:38.206Z,26
2017-05-18T10:03:38.140Z,25.91
2017-05-18T10:04:38.141Z,25.98
2017-05-18T10:05:38.025Z,25.9
2017-05-18T10:06:37.957Z,26.02
2017-05-18T10:07:37.592Z,26
2017-05-18T10:08:37.839Z,25.95
2017-05-18T10:09:37.783Z,25.99
2017-05-18T10:10:37.415Z,26
2017-05-18T10:11:37.659Z,26.03
2017-05-18T10:12:37.603Z,25.98
2017-05-18T10:13:37.541Z,26.02
2017-05-18T10:14:37.181Z,26.13
2017-05-18T10:15:37.421Z,26.1
2017-05-18T10:16:37.396Z,26.09
2017-05-18T10:17:37.527Z,26.07
2017-05-18T10:18:36.936Z,26.07
2017-05-18T10:19:37.180Z,26.13
2017-05-18T10:20:37.115Z,26.07
2017-05-18T10:21:37.076Z,26.07
2017-05-18T10:22:36.995Z,26.1
2017-05-18T10:23:36.635Z,26.05
2017-05-18T10:24:36.869Z,26.13
2017-05-18T10:25:36.813Z,26.06
2017-05-18T10:26:36.754Z,26.09
2017-05-18T10:27:36.699Z,26.05
2017-05-18T10:28:36.630Z,26
2017-05-18T10:29:36.573Z,25.93
2017-05-18T10:30:36.524Z,26.02
2017-05-18T10:31:36.452Z,25.95
2017-05-18T10:32:36.389Z,25.96
2017-05-18T10:33:36.332Z,25.87
2017-05-18T10:34:35.985Z,25.91
2017-05-18T10:35:35.907Z,25.9
2017-05-18T10:36:36.153Z,25.98
2017-05-18T10:37:36.088Z,25.88
2017-05-18T10:38:36.035Z,25.91
2017-05-18T10:39:35.966Z,25.84
2017-05-18T10:40:35.906Z,25.83
2017-05-18T10:41:35.856Z,25.8
2017-05-18T10:42:35.785Z,25.87
2017-05-18T10:43:35.757Z,25.84
2017-05-18T10:44:35.665Z,25.8
2017-05-18T10:45:35.621Z,25.81
2017-05-18T10:46:34.952Z,25.84
2017-05-18T10:47:35.487Z,25.91
2017-05-18T10:48:35.132Z,25.9
2017-05-18T10:49:35.391Z,25.87
2017-05-18T10:50:35.306Z,25.9
2017-05-18T10:51:35.243Z,25.85
2017-05-18T10:52:35.182Z,25.8
2017-05-18T10:53:35.126Z,25.84
2017-05-18T10:54:34.757Z,25.88
2017-05-18T10:55:35.002Z,25.93
2017-05-18T10:56:34.942Z,25.9
2017-05-18T10:57:34.880Z,25.84
2017-05-18T10:58:34.841Z,25.81
2017-05-18T10:59:34.764Z,25.85
2017-05-18T11:00:35.001Z,25.88
2017-05-18T11:01:34.637Z,25.83
2017-05-18T11:02:34.579Z,25.85
2017-05-18T11:03:34.520Z,25.84
2017-05-18T11:04:34.468Z,25.85
2017-05-18T11:05:34.513Z,25.8
2017-05-18T11:06:34.335Z,25.77
2017-05-18T11:07:33.985Z,25.81
2017-05-18T11:08:34.257Z,25.81
2017-05-18T11:09:33.856Z,25.83
2017-05-18T11:10:34.457Z,25.83
2017-05-18T11:11:34.034Z,25.78
2017-05-18T11:12:33.669Z,25.7
2017-05-18T11:13:33.910Z,25.73
2017-05-18T11:14:33.851Z,25.69
2017-05-18T11:15:33.888Z,25.7
2017-05-18T11:16:33.737Z,25.69
2017-05-18T11:17:33.674Z,25.69
2017-05-18T11:18:33.003Z,25.66
2017-05-18T11:19:33.834Z,25.63
2017-05-18T11:20:33.186Z,25.68
2017-05-18T11:21:33.124Z,25.73
2017-05-18T11:22:33.382Z,25.72
2017-05-18T11:23:33.008Z,25.69
2017-05-18T11:24:33.302Z,25.65
2017-05-18T11:25:33.186Z,25.66
2017-05-18T11:26:33.197Z,25.75
2017-05-18T11:27:33.092Z,25.72
2017-05-18T11:28:33.005Z,25.63
2017-05-18T11:29:32.962Z,25.68
2017-05-18T11:30:32.889Z,25.59
2017-05-18T11:31:32.873Z,25.69
2017-05-18T11:32:32.760Z,25.66
2017-05-18T11:33:32.733Z,25.68
2017-05-18T11:34:32.658Z,25.62
2017-05-18T11:35:32.735Z,25.63
2017-05-18T11:36:32.520Z,25.6
2017-05-18T11:37:32.460Z,25.66
2017-05-18T11:38:32.405Z,25.66
2017-05-18T11:39:32.369Z,25.65
2017-05-18T11:40:32.333Z,25.65
2017-05-18T11:41:32.305Z,25.62
2017-05-18T11:42:32.160Z,25.63
2017-05-18T11:43:32.094Z,25.59
2017-05-18T11:44:32.033Z,25.65
2017-05-18T11:45:31.674Z,25.62
2017-05-18T11:46:31.907Z,25.59
2017-05-18T11:47:31.862Z,25.62
2017-05-18T11:48:31.802Z,25.62
2017-05-18T11:49:31.728Z,25.63
2017-05-18T11:50:31.678Z,25.63
2017-05-18T11:51:31.683Z,25.6
2017-05-18T11:52:31.247Z,25.63
2017-05-18T11:53:31.491Z,25.51
2017-05-18T11:54:31.446Z,25.6
2017-05-18T11:55:31.365Z,25.5
2017-05-18T11:56:31.303Z,25.62
2017-05-18T11:57:31.244Z,25.59
2017-05-18T11:58:31.188Z,25.65
2017-05-18T11:59:31.131Z,25.62
2017-05-18T12:00:31.060Z,25.59
2017-05-18T12:01:31.026Z,25.59
2017-05-18T12:02:30.946Z,25.62
2017-05-18T12:03:30.881Z,25.62
2017-05-18T12:04:30.874Z,25.66
2017-05-18T12:05:30.761Z,25.72
2017-05-18T12:06:30.700Z,25.66
2017-05-18T12:07:30.638Z,25.65
2017-05-18T12:08:30.592Z,25.65
2017-05-18T12:09:30.518Z,25.66
2017-05-18T12:10:30.457Z,25.6
2017-05-18T12:11:30.406Z,25.6
2017-05-18T12:12:30.338Z,25.63
2017-05-18T12:13:30.277Z,25.59
2017-05-18T12:14:30.211Z,25.59
2017-05-18T12:15:30.154Z,25.62
2017-05-18T12:16:30.093Z,25.59
2017-05-18T12:17:30.059Z,25.65
2017-05-18T12:18:29.970Z,25.53
2017-05-18T12:19:29.905Z,25.62
2017-05-18T12:20:29.851Z,25.5
2017-05-18T12:21:29.786Z,25.6
2017-05-18T12:22:29.740Z,25.6
2017-05-18T12:23:29.602Z,25.62
2017-05-18T12:24:29.302Z,25.6
2017-05-18T12:25:29.242Z,25.55
2017-05-18T12:26:29.181Z,25.59
2017-05-18T12:27:30.090Z,25.6
2017-05-18T12:28:29.364Z,25.54
2017-05-18T12:29:29.315Z,25.54
2017-05-18T12:30:29.342Z,25.55
2017-05-18T12:31:29.190Z,25.6
2017-05-18T12:32:29.117Z,25.65
2017-05-18T12:33:29.167Z,25.62
2017-05-18T12:34:28.696Z,25.5
2017-05-18T12:35:29.255Z,25.58
2017-05-18T12:36:29.519Z,25.5
2017-05-18T12:37:28.821Z,25.54
2017-05-18T12:38:28.509Z,25.62
2017-05-18T12:39:28.697Z,25.53
2017-05-18T12:40:28.632Z,25.46
2017-05-18T12:41:28.683Z,25.47
2017-05-18T12:42:28.515Z,25.55
2017-05-18T12:43:28.530Z,25.5
2017-05-18T12:44:28.410Z,25.47
2017-05-18T12:45:28.429Z,25.54
2017-05-18T12:46:28.273Z,25.54
2017-05-18T12:47:28.208Z,25.41
2017-05-18T12:48:28.319Z,25.48
2017-05-18T12:49:28.091Z,25.51
2017-05-18T12:50:28.277Z,25.6
2017-05-18T12:51:27.470Z,25.62
2017-05-18T12:52:27.909Z,25.6
2017-05-18T12:53:27.875Z,25.63
2017-05-18T12:54:27.487Z,25.65
2017-05-18T12:55:27.721Z,25.69
2017-05-18T12:56:27.662Z,25.68
2017-05-18T12:57:27.607Z,25.68